GCRRGMFF

Guest
Details From GCRR - Lanzarote
To GMFF - SAISS
Flight Number -
Tags generated
Created
Modified
Stats Distance 544 nm / 1,007 km
Max Altitude 35,000 ft / 10,668 m
Waypoints 6
Social Downloads 0
Likes 0
Share VATSIM

Download

Looking for another format? Having issues loading an existing format? Contact us
Advertisement - Login to hide

Notes

Basic altitude profile: - Ascent Rate: 2500ft/min - Ascent Speed: 250kts - Cruise Altitude: 35000ft - Cruise Speed: 420kts - Descent Rate: 1500ft/min - Descent Speed: 250kts Options: - Use NATs: yes - Use PACOTS: yes - Use low airways: yes - Use high airways: yes

Route

GCRR SONSO UG5 ESS B11 MAK UG850 ERLAM GMFF

ID Type Via Altitude Latitude Longitude Leg Dist Tot Dist Heading (true) Name
O GCRR APT - 0 ft / 0 m 28.94547˚ -13.60522˚ - 0 nm - Lanzarote
SONSO FIX - 35,000 ft / 10,668 m 30.01222˚ -12.10194˚ 101 nm 101 nm 50° / 51° -
ESS VOR UG5 (AWY-HI) 35,000 ft / 10,668 m 31.40124˚ -9.68696˚ 150 nm 251 nm 56° / 57° ESSAOUIRA VOR-DME
MAK VOR B11 (AWY-LO) 23,500 ft / 7,163 m 31.61278˚ -8.10306˚ 82 nm 333 nm 81° / 82° MARRAKECH VOR-DME
ERLAM FIX UG850 (AWY-HI) 23,500 ft / 7,163 m 32.91917˚ -6.39000˚ 117 nm 450 nm 47° / 48° -
O GMFF APT - 0 ft / 0 m 33.92733˚ -4.97793˚ 93 nm 543 nm 49° / 50° SAISS

Altitude Profile

Advertisement - Login to hide

Weather


0- 5 10 15 20 25 30 35+ Temperature / ° C

Clouds and Precipitation
Forecast for 2018-05-21 18:00 UTC. Updated 8 minutes ago

Ground ~20,000 ft ~40,000 ft Winds

GCRR

Details ICAO GCRR (ACE)
Name Lanzarote
Region Canary Islands
Timezone Atlantic/Canary (UTC+1.0)
Stats Elevation 0 ft / 0 m (AMSL)
Location 28.945466° -13.605223°
Runways 1
Magnetic Variation 3.927° W

METAR

GCRR 211500Z 34011KT 290V020 9999 SCT045 23/11 Q1015

Decode

TAF

TAF GCRR 211400Z 2115/2215 35012KT 9999 FEW030 TX25/2214Z TN16/2205Z

Decode

Departure Runways

ID Width Length Bearing (true) Bearing (mag) Surface Threshold Offset Overrun Length
03 148 ft / 45 m 7,893 ft / 2,406 m 26.90° 30.83° Asphalt 197 ft / 60 m 197 ft / 60 m
21 148 ft / 45 m 7,893 ft / 2,406 m 206.91° 210.84° Asphalt 197 ft / 60 m 197 ft / 60 m

GMFF

Details ICAO GMFF (FEZ)
Name SAISS
Region Morocco
Timezone Africa/Casablanca (UTC+0.0)
Stats Elevation 1,900 ft / 579 m (AMSL)
Location 33.927327° -4.977931°
Runways 1
Magnetic Variation 0.985° W

METAR

GMFF 211500Z 30010KT 9999 FEW023 BKN030 24/13 Q1014 NOSIG

Decode

TAF

TAF GMFF 211100Z 2112/2218 32008KT 9999 SCT016 SCT026 BECMG 2113/2115 SCT030 SCT040CB PROB40 TEMPO 2116/2119 TSRA BECMG 2120/2122 FEW030 BECMG 2123/2201 CAVOK PROB40 TEMPO 2202/2208 2000 BR BKN004 SCT026 BECMG 2209/2212 02010KT SCT026

Decode

Destination Runways

ID Width Length Bearing (true) Bearing (mag) Surface Threshold Offset Overrun Length
09 148 ft / 45 m 10,461 ft / 3,189 m 90.26° 91.25° Asphalt 0 ft / 0 m 197 ft / 60 m
27 148 ft / 45 m 10,461 ft / 3,189 m 270.28° 271.27° Asphalt 820 ft / 250 m 0 ft / 0 m